Time;durP1;ratioP1;P1;durP2;ratioP2;P2;SDS_P1;SDS_P2;PMS_P1;PMS_P2;Temp;Humidity;BMP_temperature;BMP_pressure;BME280_temperature;BME280_humidity;BME280_pressure;Samples;Min_cycle;Max_cycle;Signal;HPM_P1;HPM_P2
2021/01/27 00:02:17;;;;;;;8.30;4.63;;;3.70;82.30;;;;;;5072380;28;20650;-85
2021/01/27 00:04:43;;;;;;;8.40;4.20;;;3.70;83.00;;;;;;5071887;28;20025;-84
2021/01/27 00:07:09;;;;;;;10.87;4.30;;;3.70;83.00;;;;;;5071765;28;20025;-85
2021/01/27 00:09:34;;;;;;;8.23;4.20;;;3.70;82.20;;;;;;5071451;28;20036;-85
2021/01/27 00:12:00;;;;;;;7.40;4.60;;;3.70;82.80;;;;;;5071987;28;20060;-85
2021/01/27 00:14:25;;;;;;;7.77;4.43;;;3.60;82.30;;;;;;5072046;28;20032;-85
2021/01/27 00:16:51;;;;;;;9.57;4.90;;;3.60;82.00;;;;;;5073423;28;20103;-85
2021/01/27 00:19:17;;;;;;;9.57;4.13;;;3.60;82.20;;;;;;5072472;28;20033;-85
2021/01/27 00:21:42;;;;;;;8.20;3.80;;;3.60;81.60;;;;;;5072768;28;20037;-85
2021/01/27 00:24:08;;;;;;;8.10;4.13;;;3.60;82.20;;;;;;5073274;28;20370;-85
2021/01/27 00:26:34;;;;;;;8.03;4.57;;;3.60;82.10;;;;;;5073306;28;20029;-85
2021/01/27 00:29:00;;;;;;;8.83;4.33;;;3.50;82.70;;;;;;5071189;28;20032;-85
2021/01/27 00:31:25;;;;;;;13.47;5.00;;;3.60;81.90;;;;;;5071464;28;20035;-85
2021/01/27 00:33:51;;;;;;;9.17;4.73;;;3.50;81.80;;;;;;5072806;28;20066;-85
2021/01/27 00:36:17;;;;;;;8.63;4.37;;;3.50;82.10;;;;;;5071423;28;20031;-84
2021/01/27 00:38:43;;;;;;;9.93;4.63;;;3.60;82.00;;;;;;5072612;28;20055;-85
2021/01/27 00:41:09;;;;;;;9.37;3.83;;;3.50;82.20;;;;;;5070583;28;20443;-85
2021/01/27 00:43:34;;;;;;;11.57;4.67;;;3.60;81.60;;;;;;5071374;28;20067;-86
2021/01/27 00:46:00;;;;;;;10.83;4.03;;;3.60;81.70;;;;;;5071379;28;20024;-85
2021/01/27 00:48:25;;;;;;;9.00;4.27;;;3.50;81.60;;;;;;5071116;28;20029;-85
2021/01/27 00:50:51;;;;;;;10.20;4.30;;;3.50;81.60;;;;;;5070892;28;20020;-85
2021/01/27 00:53:17;;;;;;;8.10;4.40;;;3.50;80.70;;;;;;5071308;28;20507;-85
2021/01/27 00:55:43;;;;;;;9.73;4.30;;;3.50;80.90;;;;;;5071585;28;20028;-86
2021/01/27 00:58:09;;;;;;;9.07;4.07;;;3.50;80.70;;;;;;5073238;28;20418;-85
2021/01/27 01:00:37;;;;;;;9.03;3.77;;;3.50;80.60;;;;;;5071532;28;20028;-86
2021/01/27 01:03:04;;;;;;;8.27;3.97;;;3.50;79.80;;;;;;5071550;28;20029;-85
2021/01/27 01:05:35;;;;;;;8.30;3.83;;;3.50;79.50;;;;;;5073208;28;20064;-85
2021/01/27 01:08:01;;;;;;;9.83;3.90;;;3.50;80.20;;;;;;5073262;28;20025;-85
2021/01/27 01:10:29;;;;;;;8.33;3.70;;;3.50;80.20;;;;;;5071609;28;20424;-85
2021/01/27 01:12:56;;;;;;;8.63;4.10;;;3.50;79.90;;;;;;5073143;28;20086;-86
2021/01/27 01:15:25;;;;;;;7.57;3.77;;;3.50;79.50;;;;;;5071326;28;20067;-85
2021/01/27 01:17:50;;;;;;;8.50;4.13;;;3.50;79.50;;;;;;5071209;28;20029;-85
2021/01/27 01:20:16;;;;;;;7.67;3.90;;;3.50;79.80;;;;;;5070999;28;20055;-85
2021/01/27 01:22:47;;;;;;;9.37;4.27;;;3.40;79.40;;;;;;5072268;28;20025;-85
2021/01/27 01:25:15;;;;;;;8.07;4.10;;;3.40;79.80;;;;;;5072664;28;20047;-85
2021/01/27 01:27:42;;;;;;;8.53;4.07;;;3.40;79.80;;;;;;5072049;28;20124;-85
2021/01/27 01:30:24;;;;;;;9.27;4.50;;;3.40;79.80;;;;;;5073039;28;20040;-85
2021/01/27 01:32:49;;;;;;;7.70;4.30;;;3.40;79.50;;;;;;5074943;28;20481;-86
2021/01/27 01:35:17;;;;;;;11.77;4.57;;;3.40;80.10;;;;;;5075238;28;20028;-85
2021/01/27 01:37:43;;;;;;;7.73;4.03;;;3.40;80.70;;;;;;5076197;28;20035;-86
2021/01/27 01:40:18;;;;;;;9.57;4.53;;;3.50;80.20;;;;;;5074405;28;20050;-85
2021/01/27 01:42:44;;;;;;;8.40;4.60;;;3.40;80.70;;;;;;5076568;28;20031;-85
2021/01/27 01:45:27;;;;;;;8.70;4.70;;;3.40;80.80;;;;;;5076375;28;20032;-85
2021/01/27 01:47:54;;;;;;;11.20;4.80;;;3.40;81.30;;;;;;5076266;28;20048;-85
2021/01/27 01:50:21;;;;;;;9.67;4.67;;;3.40;81.30;;;;;;5075742;28;20393;-85
2021/01/27 01:52:46;;;;;;;9.20;4.87;;;3.40;81.00;;;;;;5074847;28;20451;-85
2021/01/27 01:55:14;;;;;;;8.77;4.83;;;3.40;81.90;;;;;;5074719;28;20028;-85
2021/01/27 01:57:41;;;;;;;7.77;4.73;;;3.40;81.30;;;;;;5074633;28;20451;-85
2021/01/27 02:00:09;;;;;;;11.53;5.40;;;3.40;81.70;;;;;;5074154;28;20020;-85
2021/01/27 02:02:37;;;;;;;9.77;5.20;;;3.40;82.30;;;;;;5074447;28;20021;-85
2021/01/27 02:05:12;;;;;;;7.80;4.50;;;3.40;81.30;;;;;;5074165;28;20028;-85
2021/01/27 02:07:37;;;;;;;8.80;4.73;;;3.40;82.10;;;;;;5074563;28;20036;-85
2021/01/27 02:10:06;;;;;;;8.20;4.27;;;3.30;80.80;;;;;;5073759;28;20036;-85
2021/01/27 02:13:13;;;;;;;10.40;4.97;;;3.30;81.00;;;;;;5075653;28;20044;-85
2021/01/27 02:16:01;;;;;;;7.93;4.23;;;3.40;80.60;;;;;;5074150;28;20036;-85
2021/01/27 02:18:50;;;;;;;7.57;3.67;;;3.40;80.10;;;;;;5075287;28;20025;-85
2021/01/27 02:21:34;;;;;;;7.25;3.40;;;3.30;78.60;;;;;;5074252;28;20035;-85
2021/01/27 02:24:06;;;;;;;6.20;3.10;;;3.30;78.80;;;;;;5073838;28;20020;-85
2021/01/27 02:26:59;;;;;;;8.93;3.47;;;3.30;78.30;;;;;;5074098;28;20020;-85
2021/01/27 02:29:44;;;;;;;9.43;3.30;;;3.30;77.40;;;;;;5074988;28;20038;-85
2021/01/27 02:32:36;;;;;;;5.57;2.87;;;3.30;77.40;;;;;;5074606;28;20027;-86
2021/01/27 02:35:13;;;;;;;6.27;3.27;;;3.30;77.50;;;;;;5073954;28;20110;-85
2021/01/27 02:38:06;;;;;;;7.90;3.03;;;3.30;77.10;;;;;;5075029;28;20109;-85
2021/01/27 02:40:39;;;;;;;6.20;2.90;;;3.30;77.40;;;;;;5073148;28;20108;-85
2021/01/27 02:43:25;;;;;;;5.43;2.60;;;3.30;78.30;;;;;;5073514;28;20426;-85
2021/01/27 02:46:03;;;;;;;6.33;2.40;;;3.30;78.20;;;;;;5075049;28;20046;-85
2021/01/27 02:48:38;;;;;;;5.93;2.20;;;3.30;80.00;;;;;;5073693;28;20031;-85
2021/01/27 02:51:17;;;;;;;4.40;2.33;;;3.30;79.10;;;;;;5072904;28;20020;-85
2021/01/27 02:53:51;;;;;;;3.88;1.80;;;3.40;79.20;;;;;;5075268;28;20044;-85
2021/01/27 02:56:23;;;;;;;4.07;2.10;;;3.30;78.90;;;;;;5073770;28;20102;-85
2021/01/27 02:59:17;;;;;;;5.27;2.10;;;3.30;79.80;;;;;;5075194;28;20107;-85
2021/01/27 03:01:51;;;;;;;5.13;2.40;;;3.30;80.00;;;;;;5074367;28;20162;-86
2021/01/27 03:04:23;;;;;;;5.47;2.40;;;3.20;80.10;;;;;;5073909;28;20025;-85
2021/01/27 03:06:52;;;;;;;5.50;2.10;;;3.30;80.50;;;;;;5073584;28;20365;-85
2021/01/27 03:09:29;;;;;;;4.60;2.10;;;3.30;80.60;;;;;;5074141;28;20389;-85
2021/01/27 03:11:55;;;;;;;4.93;2.20;;;3.30;80.30;;;;;;5074910;28;20389;-85
2021/01/27 03:14:21;;;;;;;10.90;2.47;;;3.40;80.90;;;;;;5073444;28;20025;-85
2021/01/27 03:16:55;;;;;;;3.87;2.13;;;3.40;80.60;;;;;;5073913;28;20032;-85
2021/01/27 03:19:36;;;;;;;6.13;2.20;;;3.40;80.50;;;;;;5073224;28;20020;-85
2021/01/27 03:22:15;;;;;;;4.47;2.40;;;3.40;80.70;;;;;;5073850;28;20027;-85
2021/01/27 03:24:52;;;;;;;6.72;1.95;;;3.40;80.20;;;;;;5073794;28;20025;-85
2021/01/27 03:27:23;;;;;;;5.77;2.30;;;3.40;80.10;;;;;;5074741;28;20416;-85
2021/01/27 03:29:58;;;;;;;5.83;2.20;;;3.40;81.20;;;;;;5073627;28;20048;-85
2021/01/27 03:32:33;;;;;;;4.60;2.10;;;3.30;81.30;;;;;;5072558;28;20436;-85
2021/01/27 03:35:10;;;;;;;5.37;1.83;;;3.30;82.50;;;;;;5074843;28;20028;-85
2021/01/27 03:37:39;;;;;;;3.87;1.90;;;3.30;83.30;;;;;;5073056;28;20369;-85
2021/01/27 03:40:09;;;;;;;3.77;2.00;;;3.30;84.00;;;;;;5073108;28;20477;-85
2021/01/27 03:42:46;;;;;;;5.20;2.00;;;3.20;84.30;;;;;;5073329;28;20021;-85
2021/01/27 03:45:14;;;;;;;4.67;1.97;;;3.30;84.60;;;;;;5073497;28;20048;-85
2021/01/27 03:47:54;;;;;;;5.13;1.93;;;3.20;85.20;;;;;;5073018;28;20489;-85
2021/01/27 03:50:24;;;;;;;5.32;2.10;;;3.20;84.80;;;;;;5074722;28;20362;-85
2021/01/27 03:53:06;;;;;;;5.37;1.70;;;3.20;85.00;;;;;;5073728;28;20032;-85
2021/01/27 03:55:48;;;;;;;6.73;1.80;;;3.20;84.90;;;;;;5072018;28;20491;-85
2021/01/27 03:58:31;;;;;;;4.37;1.80;;;3.20;84.80;;;;;;5072624;28;20359;-85
2021/01/27 04:01:07;;;;;;;5.47;1.83;;;3.20;85.20;;;;;;5072667;28;20025;-85
2021/01/27 04:03:33;;;;;;;6.63;1.60;;;3.20;85.10;;;;;;5074028;28;20096;-85
2021/01/27 04:05:58;;;;;;;5.57;2.00;;;3.20;84.80;;;;;;5073967;28;20052;-85
2021/01/27 04:08:24;;;;;;;4.33;1.73;;;3.20;85.00;;;;;;5072258;28;20397;-85
2021/01/27 04:10:50;;;;;;;4.40;1.80;;;3.20;84.60;;;;;;5073249;28;20039;-85
2021/01/27 04:13:16;;;;;;;3.10;1.53;;;3.20;84.80;;;;;;5072497;28;20570;-85
2021/01/27 04:15:42;;;;;;;4.33;1.70;;;3.20;84.30;;;;;;5072442;28;20024;-85
2021/01/27 04:18:08;;;;;;;4.77;1.80;;;3.30;84.70;;;;;;5072170;28;20050;-85
2021/01/27 04:20:34;;;;;;;3.20;1.47;;;3.20;84.40;;;;;;5071900;28;20412;-85
2021/01/27 04:22:59;;;;;;;2.83;1.37;;;3.30;83.90;;;;;;5073903;28;20496;-85
2021/01/27 04:25:25;;;;;;;2.87;1.70;;;3.20;83.90;;;;;;5072337;28;20028;-85
2021/01/27 04:27:52;;;;;;;4.93;1.70;;;3.30;84.40;;;;;;5073452;28;20107;-85
2021/01/27 04:30:21;;;;;;;3.50;1.90;;;3.30;83.50;;;;;;5071964;28;20473;-85
2021/01/27 04:32:46;;;;;;;3.40;1.48;;;3.30;83.90;;;;;;5071689;28;20507;-85
2021/01/27 04:35:13;;;;;;;2.70;1.73;;;3.30;83.90;;;;;;5072152;28;20036;-85
2021/01/27 04:37:39;;;;;;;6.40;1.60;;;3.30;83.80;;;;;;5072550;28;20032;-84
2021/01/27 04:40:11;;;;;;;3.20;1.50;;;3.40;83.70;;;;;;5071403;28;20024;-85
2021/01/27 04:42:37;;;;;;;3.37;1.40;;;3.40;83.60;;;;;;5071840;28;20020;-85
2021/01/27 04:45:06;;;;;;;4.03;1.67;;;3.30;83.60;;;;;;5073420;28;20078;-86
2021/01/27 04:47:32;;;;;;;6.40;2.13;;;3.30;83.70;;;;;;5072455;28;20036;-85
2021/01/27 04:50:06;;;;;;;3.47;1.70;;;3.40;84.60;;;;;;5071411;28;20036;-85
2021/01/27 04:53:05;;;;;;;4.53;1.97;;;3.40;84.00;;;;;;5071831;28;20499;-85
2021/01/27 04:55:36;;;;;;;4.53;1.52;;;3.30;84.30;;;;;;5071865;28;20024;-85
2021/01/27 04:58:12;;;;;;;4.63;1.73;;;3.40;84.40;;;;;;5071541;28;20435;-85
2021/01/27 05:00:43;;;;;;;5.83;1.90;;;3.40;84.40;;;;;;5072716;28;20099;-85
2021/01/27 05:03:20;;;;;;;4.83;1.90;;;3.40;84.50;;;;;;5073346;28;20024;-85
2021/01/27 05:05:53;;;;;;;4.03;2.00;;;3.30;84.50;;;;;;5071866;28;20028;-85
2021/01/27 05:08:33;;;;;;;5.67;2.27;;;3.40;84.30;;;;;;5071811;28;20382;-85
2021/01/27 05:11:04;;;;;;;;;;;3.40;84.20;;;;;;5072499;28;20202;-85
2021/01/27 05:13:37;;;;;;;4.13;1.87;;;3.30;84.60;;;;;;5071357;28;19927;-85
2021/01/27 05:16:16;;;;;;;4.20;1.90;;;3.40;84.80;;;;;;5071251;28;20058;-85
2021/01/27 05:18:42;;;;;;;4.78;2.10;;;3.40;84.50;;;;;;5072827;28;20024;-85
2021/01/27 05:21:30;;;;;;;4.30;1.83;;;3.40;84.40;;;;;;5072612;28;20040;-85
2021/01/27 05:23:56;;;;;;;4.43;2.20;;;3.40;84.80;;;;;;5071474;28;20028;-85
2021/01/27 05:26:26;;;;;;;5.50;2.47;;;3.30;84.10;;;;;;5070951;28;20154;-85
2021/01/27 05:29:08;;;;;;;4.97;2.37;;;3.40;84.70;;;;;;5070769;28;20024;-85
2021/01/27 05:32:00;;;;;;;4.87;2.47;;;3.40;84.70;;;;;;5070840;28;20021;-85
2021/01/27 05:34:46;;;;;;;7.67;2.80;;;3.40;84.70;;;;;;5071049;28;20020;-85
2021/01/27 05:37:16;;;;;;;7.00;2.77;;;3.30;84.90;;;;;;5071190;28;20535;-85
2021/01/27 05:39:44;;;;;;;8.47;2.60;;;3.30;85.20;;;;;;5070235;28;20021;-85
2021/01/27 05:42:22;;;;;;;5.03;2.97;;;3.30;85.40;;;;;;5070902;28;20120;-85
2021/01/27 05:44:51;;;;;;;8.43;2.70;;;3.30;85.60;;;;;;5071062;28;20024;-85
2021/01/27 05:47:37;;;;;;;6.68;3.30;;;3.30;85.80;;;;;;5070712;28;20028;-85
2021/01/27 05:50:20;;;;;;;5.23;2.80;;;3.30;85.70;;;;;;5071884;28;20036;-85
2021/01/27 05:52:50;;;;;;;5.90;2.70;;;3.20;86.50;;;;;;5070870;28;20036;-85
2021/01/27 05:55:18;;;;;;;10.93;3.20;;;3.20;86.10;;;;;;5070937;28;20458;-86
2021/01/27 05:57:56;;;;;;;5.90;2.90;;;3.20;86.30;;;;;;5056319;28;20033;-85
2021/01/27 06:00:26;;;;;;;6.75;2.72;;;3.20;86.70;;;;;;5071214;28;20542;-85
2021/01/27 06:02:52;;;;;;;;;;;3.20;86.50;;;;;;5072105;28;20029;-85
2021/01/27 06:05:31;;;;;;;7.13;2.73;;;3.20;86.80;;;;;;5087811;28;19905;-85
2021/01/27 06:08:12;;;;;;;4.35;2.30;;;3.30;86.80;;;;;;5070838;28;20024;-86
2021/01/27 06:10:38;;;;;;;6.93;2.80;;;3.20;86.70;;;;;;5071436;28;20036;-86
2021/01/27 06:13:28;;;;;;;5.10;2.50;;;3.20;87.50;;;;;;5070496;28;20025;-86
2021/01/27 06:15:55;;;;;;;4.60;2.60;;;3.20;87.80;;;;;;5070865;28;20033;-86
2021/01/27 06:18:29;;;;;;;4.63;2.50;;;3.30;88.40;;;;;;5073650;28;20435;-86
2021/01/27 06:21:13;;;;;;;7.00;2.70;;;3.20;88.50;;;;;;5074202;28;20497;-85
2021/01/27 06:24:16;;;;;;;7.93;2.63;;;3.20;89.50;;;;;;5074242;28;20049;-85
2021/01/27 06:27:23;;;;;;;4.90;2.80;;;3.10;90.00;;;;;;5073974;28;20475;-85
2021/01/27 06:30:24;;;;;;;4.70;2.60;;;3.20;90.20;;;;;;5073971;28;20408;-85
2021/01/27 06:33:21;;;;;;;5.47;2.67;;;3.10;90.60;;;;;;5074380;28;20063;-85
2021/01/27 06:36:31;;;;;;;4.83;2.57;;;3.10;90.80;;;;;;5073634;28;20029;-86
2021/01/27 06:39:35;;;;;;;5.07;2.80;;;3.10;91.00;;;;;;5074290;28;20024;-85
2021/01/27 06:42:07;;;;;;;5.90;2.70;;;3.10;91.10;;;;;;5076223;28;20512;-85
2021/01/27 06:44:47;;;;;;;6.13;3.00;;;3.10;91.20;;;;;;5073924;28;20451;-85
2021/01/27 06:47:37;;;;;;;7.30;3.33;;;3.10;91.20;;;;;;5073373;28;20064;-85
2021/01/27 06:50:11;;;;;;;6.30;3.30;;;3.10;91.20;;;;;;5072493;28;20024;-85
2021/01/27 06:53:14;;;;;;;6.87;3.50;;;3.10;91.40;;;;;;5080103;28;20038;-84
2021/01/27 06:55:45;;;;;;;7.33;3.63;;;3.10;91.60;;;;;;5081360;28;20456;-85
2021/01/27 06:58:51;;;;;;;8.43;3.77;;;3.00;91.80;;;;;;5075359;28;20035;-85
2021/01/27 07:01:51;;;;;;;5.03;3.20;;;2.90;91.80;;;;;;5065062;28;20033;-85
2021/01/27 07:04:40;;;;;;;6.53;4.10;;;2.90;92.10;;;;;;5074763;28;20031;-85
2021/01/27 07:07:11;;;;;;;6.78;4.22;;;2.90;92.30;;;;;;5074511;28;20020;-85
2021/01/27 07:10:12;;;;;;;12.73;6.33;;;2.80;92.30;;;;;;5073948;28;20041;-85
2021/01/27 07:12:47;;;;;;;8.97;4.37;;;2.80;92.60;;;;;;5076522;28;20052;-85
2021/01/27 07:16:13;;;;;;;6.93;4.70;;;2.80;92.60;;;;;;5074429;28;20096;-85
2021/01/27 07:19:00;;;;;;;9.80;4.90;;;2.90;92.70;;;;;;5030795;28;20409;-85
2021/01/27 07:21:53;;;;;;;7.53;4.77;;;2.90;92.60;;;;;;5074186;28;20021;-85
2021/01/27 07:24:40;;;;;;;10.50;5.07;;;2.80;92.80;;;;;;5076004;28;20430;-85
2021/01/27 07:27:14;;;;;;;12.43;5.77;;;2.90;92.70;;;;;;5074398;28;20074;-85
2021/01/27 07:29:48;;;;;;;9.63;5.47;;;2.90;92.80;;;;;;5073326;28;20485;-85
2021/01/27 07:32:39;;;;;;;8.43;5.50;;;2.90;92.70;;;;;;5074945;28;20111;-85
2021/01/27 07:35:32;;;;;;;9.87;6.10;;;2.80;92.70;;;;;;5066101;28;20036;-85
2021/01/27 07:38:21;;;;;;;8.47;5.27;;;2.80;93.20;;;;;;5074108;28;20021;-86
2021/01/27 07:40:56;;;;;;;9.00;6.25;;;2.80;93.30;;;;;;5073941;28;20504;-85
2021/01/27 07:43:28;;;;;;;9.87;5.60;;;2.80;93.30;;;;;;5074090;28;20024;-84
2021/01/27 07:45:55;;;;;;;9.53;5.67;;;2.80;93.30;;;;;;5074018;28;20029;-85
2021/01/27 07:48:44;;;;;;;10.13;5.87;;;2.90;93.10;;;;;;5073629;28;20074;-85
2021/01/27 07:51:25;;;;;;;10.55;5.95;;;2.90;93.00;;;;;;5073743;28;20024;-85
2021/01/27 07:54:10;;;;;;;6.87;5.30;;;2.80;93.40;;;;;;5074075;28;20051;-85
2021/01/27 07:56:58;;;;;;;7.93;5.33;;;2.80;93.40;;;;;;5074654;28;20495;-85
2021/01/27 07:59:41;;;;;;;8.90;5.50;;;2.80;93.40;;;;;;5071995;28;20029;-85
2021/01/27 08:02:22;;;;;;;9.53;5.53;;;2.80;93.10;;;;;;5073738;28;20103;-85
2021/01/27 08:04:52;;;;;;;8.43;5.40;;;2.80;93.10;;;;;;5072508;28;20063;-85
2021/01/27 08:07:22;;;;;;;9.43;6.03;;;2.80;93.30;;;;;;5072601;28;20032;-85
2021/01/27 08:09:49;;;;;;;14.20;7.85;;;2.80;93.20;;;;;;5071368;28;20036;-86
2021/01/27 08:12:49;;;;;;;12.27;6.97;;;2.90;93.20;;;;;;5072962;28;20094;-85
2021/01/27 08:15:40;;;;;;;7.53;4.83;;;2.80;93.00;;;;;;5072049;28;20042;-86
2021/01/27 08:18:18;;;;;;;8.53;5.63;;;2.80;93.10;;;;;;5072723;28;20410;-86
2021/01/27 08:20:46;;;;;;;13.63;5.97;;;2.80;93.30;;;;;;5072109;28;20063;-86
2021/01/27 08:23:21;;;;;;;11.00;5.20;;;2.80;93.20;;;;;;5073597;28;20024;-86
2021/01/27 08:25:56;;;;;;;8.97;5.60;;;2.80;93.20;;;;;;5073281;28;20035;-86
2021/01/27 08:28:37;;;;;;;8.70;5.60;;;2.90;93.40;;;;;;5071979;28;20028;-86
2021/01/27 08:31:09;;;;;;;10.10;5.47;;;2.90;93.30;;;;;;5071967;28;20020;-86
2021/01/27 08:33:47;;;;;;;8.73;5.63;;;2.90;92.90;;;;;;5072876;28;20029;-86
2021/01/27 08:36:18;;;;;;;9.97;5.90;;;2.90;93.30;;;;;;5071771;28;20029;-85
2021/01/27 08:38:57;;;;;;;9.90;6.03;;;2.80;93.30;;;;;;5071972;28;20024;-85
2021/01/27 08:42:02;;;;;;;8.60;5.63;;;2.90;93.50;;;;;;5073521;28;20023;-85
2021/01/27 08:44:40;;;;;;;9.13;5.43;;;2.80;93.60;;;;;;5032893;28;20032;-85
2021/01/27 08:47:37;;;;;;;8.27;5.33;;;2.90;93.60;;;;;;5074648;28;20118;-85
2021/01/27 08:50:04;;;;;;;9.07;6.10;;;2.80;93.50;;;;;;5072526;28;20036;-86
2021/01/27 08:52:32;;;;;;;9.43;6.37;;;2.70;93.70;;;;;;5072684;28;20021;-85
2021/01/27 08:54:59;;;;;;;11.37;6.37;;;2.80;93.80;;;;;;5073552;28;20447;-85
2021/01/27 08:57:32;;;;;;;11.60;6.83;;;2.80;93.80;;;;;;5074205;28;20024;-85
2021/01/27 09:00:00;;;;;;;9.23;6.80;;;2.80;94.20;;;;;;5072822;28;20039;-86
2021/01/27 09:02:44;;;;;;;10.77;7.05;;;2.80;94.10;;;;;;5074255;28;20029;-85
2021/01/27 09:05:19;;;;;;;11.40;6.97;;;2.80;94.20;;;;;;5073791;28;20050;-85
2021/01/27 09:07:54;;;;;;;10.90;6.67;;;2.80;93.90;;;;;;5095514;22;20037;-82
2021/01/27 09:10:26;;;;;;;13.10;6.60;;;2.80;94.10;;;;;;5077537;28;20040;-82
2021/01/27 09:12:52;;;;;;;11.40;6.80;;;2.80;94.00;;;;;;5077801;28;20028;-81
2021/01/27 09:15:23;;;;;;;11.70;7.10;;;2.80;94.30;;;;;;5075772;28;20029;-82
2021/01/27 09:17:50;;;;;;;11.53;7.97;;;2.80;94.40;;;;;;5077586;28;20427;-81
2021/01/27 09:20:23;;;;;;;10.43;7.00;;;2.80;94.40;;;;;;5076553;28;20504;-82
2021/01/27 09:22:57;;;;;;;11.57;6.23;;;2.80;94.30;;;;;;5074353;28;20033;-81
2021/01/27 09:25:22;;;;;;;10.10;7.07;;;2.80;94.20;;;;;;5073598;28;20466;-81
2021/01/27 09:28:03;;;;;;;9.67;6.50;;;2.80;94.30;;;;;;5073474;28;20032;-81
2021/01/27 09:30:29;;;;;;;9.17;6.77;;;2.80;94.20;;;;;;5072719;28;20033;-81
2021/01/27 09:33:17;;;;;;;10.33;6.97;;;2.80;94.20;;;;;;5073648;28;20039;-80
2021/01/27 09:35:44;;;;;;;10.37;6.80;;;2.90;94.40;;;;;;5088969;28;20029;-81
2021/01/27 09:38:16;;;;;;;10.33;6.20;;;2.90;94.60;;;;;;5072861;28;20111;-81
2021/01/27 09:40:47;;;;;;;10.67;6.27;;;2.90;94.30;;;;;;5072960;28;20028;-80
2021/01/27 09:43:16;;;;;;;10.20;6.80;;;3.00;94.10;;;;;;5073030;28;20044;-80
2021/01/27 09:45:47;;;;;;;10.87;6.03;;;3.00;94.20;;;;;;5073208;28;20035;-80
2021/01/27 09:48:16;;;;;;;10.20;6.40;;;3.00;94.30;;;;;;5073269;28;20322;-80
2021/01/27 09:50:58;;;;;;;9.55;6.45;;;3.00;94.20;;;;;;5072030;28;20051;-80
2021/01/27 09:53:36;;;;;;;11.77;6.70;;;3.10;94.30;;;;;;5072440;28;20452;-80
2021/01/27 09:56:03;;;;;;;11.83;6.77;;;3.10;94.20;;;;;;5076655;28;20025;-80
2021/01/27 09:58:29;;;;;;;9.93;6.63;;;3.10;94.50;;;;;;5076270;28;20024;-80
2021/01/27 10:01:04;;;;;;;12.10;6.67;;;3.10;94.30;;;;;;5074160;28;20021;-81
2021/01/27 10:03:35;;;;;;;10.13;6.40;;;3.10;94.60;;;;;;5076735;28;20488;-80
2021/01/27 10:06:01;;;;;;;8.73;5.80;;;3.10;94.70;;;;;;5076643;28;20029;-80
2021/01/27 10:08:41;;;;;;;10.17;5.90;;;3.10;94.70;;;;;;5076404;28;20123;-80
2021/01/27 10:11:08;;;;;;;;;;;3.10;94.60;;;;;;5076454;28;20473;-80
2021/01/27 10:13:37;;;;;;;8.30;5.13;;;3.10;94.90;;;;;;5074763;28;19952;-80
2021/01/27 10:16:09;;;;;;;8.60;5.75;;;3.10;94.80;;;;;;5074643;28;20025;-80
2021/01/27 10:18:37;;;;;;;8.63;5.37;;;3.10;94.90;;;;;;5076436;28;20475;-80
2021/01/27 10:21:07;;;;;;;8.87;5.50;;;3.10;95.10;;;;;;5075842;28;20092;-80
2021/01/27 10:23:50;;;;;;;7.93;5.60;;;3.10;95.30;;;;;;5074677;28;20499;-80
2021/01/27 10:26:40;;;;;;;8.87;5.17;;;3.10;95.10;;;;;;5075586;28;20440;-80
2021/01/27 10:29:26;;;;;;;;;;;3.20;95.30;;;;;;5075883;28;20039;-80
2021/01/27 10:31:56;;;;;;;8.40;4.37;;;3.20;95.20;;;;;;5075345;28;19905;-80
2021/01/27 10:34:38;;;;;;;;;;;3.20;95.40;;;;;;5074588;28;20503;-80
2021/01/27 10:37:05;;;;;;;7.57;4.53;;;3.10;95.30;;;;;;5073810;28;19935;-79
2021/01/27 10:39:32;;;;;;;7.53;4.97;;;3.20;95.40;;;;;;5073174;28;20025;-80
2021/01/27 10:42:06;;;;;;;6.80;4.63;;;3.10;95.30;;;;;;5075380;28;20034;-80
2021/01/27 10:44:35;;;;;;;7.43;4.93;;;3.10;95.60;;;;;;5075636;28;20016;-79
2021/01/27 10:47:29;;;;;;;25.42;6.32;;;3.20;95.50;;;;;;5075322;28;20025;-80
2021/01/27 10:49:56;;;;;;;6.60;4.60;;;3.20;95.60;;;;;;5067628;28;20024;-80
2021/01/27 10:52:24;;;;;;;7.80;4.60;;;3.10;95.80;;;;;;5073744;28;20500;-80
2021/01/27 10:55:12;;;;;;;9.40;5.73;;;3.10;95.80;;;;;;5073313;28;20566;-80
2021/01/27 10:57:37;;;;;;;13.77;7.73;;;3.20;95.90;;;;;;5074999;28;20025;-80
2021/01/27 11:00:10;;;;;;;10.00;5.97;;;3.20;96.00;;;;;;5074474;28;20021;-80
2021/01/27 11:02:36;;;;;;;8.13;4.60;;;3.20;95.80;;;;;;5074764;28;20036;-81
2021/01/27 11:05:02;;;;;;;10.43;4.83;;;3.20;95.70;;;;;;5074192;28;20480;-80
2021/01/27 11:07:27;;;;;;;13.40;7.60;;;3.20;95.70;;;;;;5074617;28;20032;-80
2021/01/27 11:09:53;;;;;;;7.77;4.57;;;3.20;95.80;;;;;;5072744;28;20082;-79
2021/01/27 11:12:19;;;;;;;8.63;4.40;;;3.20;95.80;;;;;;5074661;28;20021;-80
2021/01/27 11:14:44;;;;;;;6.77;4.30;;;3.20;95.90;;;;;;5073330;28;20400;-80
2021/01/27 11:17:10;;;;;;;9.97;5.37;;;3.30;95.90;;;;;;5074896;28;20104;-80
2021/01/27 11:19:36;;;;;;;6.93;4.47;;;3.30;95.80;;;;;;5072627;28;20025;-80
2021/01/27 11:22:02;;;;;;;7.27;4.03;;;3.30;96.00;;;;;;5074670;28;20024;-79
2021/01/27 11:24:27;;;;;;;6.23;4.07;;;3.30;95.90;;;;;;5075024;28;20034;-80
2021/01/27 11:26:53;;;;;;;6.80;3.83;;;3.40;95.90;;;;;;5074363;28;20025;-80
2021/01/27 11:29:19;;;;;;;6.00;3.77;;;3.40;95.90;;;;;;5073941;28;20028;-80
2021/01/27 11:31:44;;;;;;;5.93;3.77;;;3.40;96.10;;;;;;5074314;28;20481;-80
2021/01/27 11:34:10;;;;;;;6.77;3.97;;;3.40;95.90;;;;;;5074475;28;20036;-80
2021/01/27 11:36:36;;;;;;;6.40;3.50;;;3.40;96.00;;;;;;5074614;28;20032;-80
2021/01/27 11:39:02;;;;;;;5.40;3.33;;;3.40;96.00;;;;;;5072554;28;20024;-80
2021/01/27 11:41:28;;;;;;;5.53;3.50;;;3.40;96.10;;;;;;5074467;28;20393;-81
2021/01/27 11:43:54;;;;;;;5.10;3.33;;;3.40;96.10;;;;;;5075476;28;20035;-80
2021/01/27 11:46:20;;;;;;;5.07;3.20;;;3.40;96.20;;;;;;5073592;28;20036;-80
2021/01/27 11:48:46;;;;;;;7.80;3.57;;;3.40;96.20;;;;;;5074224;28;20024;-80
2021/01/27 11:51:13;;;;;;;5.93;3.60;;;3.50;96.30;;;;;;5074365;28;20024;-80
2021/01/27 11:53:39;;;;;;;8.13;3.60;;;3.50;96.20;;;;;;5074785;28;20074;-80
2021/01/27 11:56:06;;;;;;;4.60;3.03;;;3.50;96.20;;;;;;5074207;28;20538;-80
2021/01/27 11:58:32;;;;;;;5.47;3.43;;;3.50;96.20;;;;;;5074341;28;20020;-80
2021/01/27 12:00:59;;;;;;;5.60;3.30;;;3.50;96.20;;;;;;5074063;28;20031;-80
2021/01/27 12:03:25;;;;;;;6.03;3.50;;;3.50;96.10;;;;;;5073010;28;20059;-80
2021/01/27 12:05:51;;;;;;;6.97;3.80;;;3.50;96.20;;;;;;5074609;28;20028;-80
2021/01/27 12:08:16;;;;;;;6.53;3.90;;;3.60;96.30;;;;;;5074231;28;20127;-80
2021/01/27 12:10:43;;;;;;;5.47;3.70;;;3.60;96.20;;;;;;5073998;28;20033;-80
2021/01/27 12:13:09;;;;;;;5.23;3.47;;;3.70;96.30;;;;;;5074116;28;20050;-80
2021/01/27 12:15:34;;;;;;;5.97;3.23;;;3.60;96.10;;;;;;5073836;28;20028;-81
2021/01/27 12:18:00;;;;;;;5.00;3.40;;;3.70;96.30;;;;;;5074097;28;20394;-80
2021/01/27 12:20:26;;;;;;;4.80;3.20;;;3.70;96.20;;;;;;5073815;28;20075;-80
2021/01/27 12:22:52;;;;;;;6.30;3.73;;;3.70;96.20;;;;;;5074574;28;20112;-81
2021/01/27 12:25:18;;;;;;;5.60;3.37;;;3.70;96.10;;;;;;5074687;28;20032;-80
2021/01/27 12:27:43;;;;;;;5.83;3.63;;;3.70;96.10;;;;;;5074475;28;20036;-80
2021/01/27 12:30:11;;;;;;;5.73;4.10;;;3.70;96.20;;;;;;5073734;28;20034;-80
2021/01/27 12:32:37;;;;;;;17.80;4.50;;;3.70;96.10;;;;;;5073027;28;20477;-81
2021/01/27 12:35:05;;;;;;;7.10;4.30;;;3.70;96.20;;;;;;5074468;28;20025;-81
2021/01/27 12:37:30;;;;;;;7.83;4.97;;;3.70;96.10;;;;;;5074175;28;20503;-81
2021/01/27 12:39:56;;;;;;;6.20;4.53;;;3.70;96.30;;;;;;5074366;28;20028;-81
2021/01/27 12:42:22;;;;;;;6.40;4.77;;;3.80;96.30;;;;;;5073548;28;20047;-80
2021/01/27 12:44:47;;;;;;;7.47;5.40;;;3.80;96.20;;;;;;5072542;28;20078;-81
2021/01/27 12:47:13;;;;;;;7.97;5.07;;;3.80;96.10;;;;;;5073948;28;20025;-81
2021/01/27 12:49:40;;;;;;;9.40;5.97;;;3.80;96.30;;;;;;5073190;28;20025;-80
2021/01/27 12:52:06;;;;;;;9.87;6.63;;;3.80;96.10;;;;;;5073858;28;20108;-81
2021/01/27 12:54:32;;;;;;;8.37;6.07;;;3.80;96.30;;;;;;5072459;28;20025;-80
2021/01/27 12:56:57;;;;;;;10.37;7.20;;;3.80;96.30;;;;;;5073377;28;20515;-80
2021/01/27 12:59:23;;;;;;;10.20;7.83;;;3.90;96.20;;;;;;5071513;28;20028;-80
2021/01/27 13:01:49;;;;;;;11.77;8.30;;;3.80;96.40;;;;;;5073380;28;20031;-80
2021/01/27 13:04:15;;;;;;;15.07;9.37;;;3.90;96.50;;;;;;5073757;28;20021;-80
2021/01/27 13:06:40;;;;;;;15.50;10.20;;;3.90;96.50;;;;;;5073194;28;20074;-81
2021/01/27 13:09:06;;;;;;;15.47;9.80;;;3.90;96.50;;;;;;5072719;28;20028;-81
2021/01/27 13:11:32;;;;;;;13.37;8.80;;;3.90;96.60;;;;;;5073514;28;20481;-80
2021/01/27 13:13:57;;;;;;;14.40;9.93;;;3.90;96.70;;;;;;5073634;28;20501;-80
2021/01/27 13:16:23;;;;;;;17.20;9.73;;;3.90;96.80;;;;;;5073258;28;20028;-80
2021/01/27 13:18:49;;;;;;;16.03;9.30;;;3.90;97.10;;;;;;5071691;28;20020;-80
2021/01/27 13:21:14;;;;;;;15.83;9.67;;;3.90;96.90;;;;;;5071953;28;20024;-81
2021/01/27 13:23:40;;;;;;;15.67;9.47;;;3.90;97.10;;;;;;5072715;28;20024;-80
2021/01/27 13:26:06;;;;;;;16.40;9.50;;;4.00;97.10;;;;;;5073181;28;20044;-80
2021/01/27 13:28:31;;;;;;;16.13;10.00;;;3.90;97.10;;;;;;5076635;28;20027;-80